Time;durP1;ratioP1;P1;durP2;ratioP2;P2;SDS_P1;SDS_P2;PMS_P1;PMS_P2;Temp;Humidity;BMP_temperature;BMP_pressure;BME280_temperature;BME280_humidity;BME280_pressure;Samples;Min_cycle;Max_cycle;Signal;HPM_P1;HPM_P2
2021/11/04 00:00:45;;;;;;;8.07;4.82;;;8.40;99.90;;;;;;5028867;28;20052;-84
2021/11/04 00:03:33;;;;;;;13.90;4.30;;;8.40;99.90;;;;;;4345180;28;10000698;-83
2021/11/04 00:06:10;;;;;;;7.13;3.60;;;8.30;99.90;;;;;;5045723;28;20059;-82
2021/11/04 00:08:38;;;;;;;10.75;3.55;;;8.30;99.90;;;;;;5016226;28;20049;-84
2021/11/04 00:11:15;;;;;;;13.27;3.45;;;6.90;99.90;;;;;;5035689;28;20048;-83
2021/11/04 00:13:52;;;;;;;13.45;4.47;;;8.20;99.90;;;;;;5019416;28;20072;-85
2021/11/04 00:16:23;;;;;;;11.82;3.55;;;8.10;99.90;;;;;;5015273;28;20060;-83
2021/11/04 00:19:01;;;;;;;11.10;3.88;;;8.10;99.90;;;;;;5014384;28;20381;-87
2021/11/04 00:21:30;;;;;;;11.18;4.13;;;7.90;99.90;;;;;;5038374;28;20052;-84
2021/11/04 00:23:58;;;;;;;8.43;4.10;;;8.10;99.90;;;;;;5022350;28;20045;-86
2021/11/04 00:26:27;;;;;;;11.68;4.28;;;8.00;99.90;;;;;;5007708;28;20136;-83
2021/11/04 00:29:00;;;;;;;8.05;3.78;;;8.10;99.90;;;;;;5028468;28;20046;-82
2021/11/04 00:31:28;;;;;;;10.38;5.68;;;8.00;99.90;;;;;;5020066;28;20053;-83
2021/11/04 00:33:57;;;;;;;8.77;4.32;;;8.10;99.90;;;;;;4993971;28;20056;-85
2021/11/04 00:36:28;;;;;;;11.57;3.97;;;8.10;99.90;;;;;;5013616;28;20056;-80
2021/11/04 00:39:07;;;;;;;10.85;3.65;;;8.00;99.90;;;;;;5037263;28;20047;-83
2021/11/04 00:41:39;;;;;;;15.05;4.82;;;8.10;99.90;;;;;;5030273;28;20041;-82
2021/11/04 00:44:09;;;;;;;9.43;3.97;;;8.10;99.90;;;;;;5018340;28;20049;-81
2021/11/04 00:46:39;;;;;;;9.65;3.50;;;8.10;99.90;;;;;;5034482;28;20058;-81
2021/11/04 00:49:10;;;;;;;9.40;3.50;;;8.10;99.90;;;;;;5040018;28;20044;-82
2021/11/04 00:51:39;;;;;;;14.15;3.70;;;8.00;99.90;;;;;;5034534;28;20045;-82
2021/11/04 00:54:17;;;;;;;10.18;3.30;;;8.00;99.90;;;;;;5022467;28;20045;-84
2021/11/04 00:57:27;;;;;;;;;;;8.00;99.90;;;;;;5029457;28;20060;-87
2021/11/04 01:00:07;;;;;;;10.15;3.40;;;7.90;99.90;;;;;;4994965;28;19928;-83
2021/11/04 01:02:36;;;;;;;12.20;3.50;;;7.90;99.90;;;;;;5029414;28;20052;-84
2021/11/04 01:05:19;;;;;;;13.18;4.38;;;8.70;99.90;;;;;;5026808;28;20104;-84
2021/11/04 01:07:48;;;;;;;10.98;3.80;;;7.90;99.90;;;;;;5029411;28;20042;-84
2021/11/04 01:10:22;;;;;;;4.20;2.47;;;8.00;99.90;;;;;;5009947;28;20054;-82
2021/11/04 01:13:06;;;;;;;7.97;3.38;;;7.90;99.90;;;;;;5007823;28;20068;-84
2021/11/04 01:15:35;;;;;;;5.90;3.10;;;7.80;99.90;;;;;;5024909;28;20046;-82
2021/11/04 01:18:22;;;;;;;9.40;3.67;;;7.80;99.90;;;;;;5011211;28;20147;-84
2021/11/04 01:21:16;;;;;;;14.90;5.35;;;7.90;99.90;;;;;;4988397;28;20050;-81
2021/11/04 01:24:05;;;;;;;10.07;4.38;;;7.90;99.90;;;;;;4983919;28;20054;-81
2021/11/04 01:26:56;;;;;;;7.15;3.60;;;7.80;99.90;;;;;;4995227;28;20054;-83
2021/11/04 01:29:42;;;;;;;9.40;3.13;;;7.80;99.90;;;;;;5004581;28;20034;-86
2021/11/04 01:32:34;;;;;;;8.50;3.45;;;7.80;99.90;;;;;;4947625;29;20054;-84
2021/11/04 01:35:06;;;;;;;12.27;4.53;;;7.80;99.90;;;;;;4961195;28;20047;-81
2021/11/04 01:37:36;;;;;;;10.95;4.00;;;7.70;99.90;;;;;;4945479;29;20067;-82
2021/11/04 01:40:05;;;;;;;5.57;3.55;;;7.70;99.90;;;;;;4936993;29;20051;-86
2021/11/04 01:43:08;;;;;;;;;;;;;;;;;;;;;
2021/11/04 01:46:23;;;;;;;5.82;3.42;;;7.70;99.90;;;;;;4950766;28;20055;-85
2021/11/04 01:49:14;;;;;;;;;;;;;;;;;;;;;
2021/11/04 01:52:31;;;;;;;6.50;2.75;;;7.60;99.90;;;;;;5011501;28;20046;-87
2021/11/04 01:56:11;;;;;;;8.90;2.88;;;7.50;99.90;;;;;;4979980;28;20063;-86
2021/11/04 02:00:16;;;;;;;6.53;3.47;;;7.40;99.90;;;;;;4889580;29;20054;-85
2021/11/04 02:03:48;;;;;;;8.32;3.15;;;7.30;99.90;;;;;;4895546;29;20068;-86
2021/11/04 02:06:45;;;;;;;5.95;3.13;;;7.20;99.90;;;;;;4902447;29;20059;-83
2021/11/04 02:09:54;;;;;;;;;;;;;;;;;;;;;
2021/11/04 02:12:52;;;;;;;12.52;4.65;;;7.40;99.90;;;;;;4965843;28;20061;-83
2021/11/04 02:15:27;;;;;;;4.82;2.72;;;7.10;99.90;;;;;;4960350;28;20055;-86
2021/11/04 02:18:41;;;;;;;10.98;3.60;;;7.10;99.90;;;;;;4971312;28;20065;-85
2021/11/04 02:25:32;;;;;;;8.90;3.30;;;7.00;99.90;;;;;;4972695;28;20046;-85
2021/11/04 02:29:12;;;;;;;;;;;;;;;;;;;;;
2021/11/04 02:33:34;;;;;;;6.50;3.15;;;5.70;99.90;;;;;;4941881;29;20186;-86
2021/11/04 02:41:03;;;;;;;;;;;;;;;;;;;;;
2021/11/04 02:44:16;;;;;;;8.00;2.83;;;7.00;99.90;;;;;;4941698;29;20059;-85
2021/11/04 02:53:42;;;;;;;;;;;;;;;;;;;;;
2021/11/04 02:57:05;;;;;;;3.95;2.35;;;7.20;99.90;;;;;;4986903;28;20057;-88
2021/11/04 03:03:43;;;;;;;10.35;5.05;;;7.80;99.90;;;;;;4986603;28;20058;-85
2021/11/04 03:07:21;;;;;;;;;;;;;;;;;;;;;
2021/11/04 03:10:09;;;;;;;16.13;3.28;;;7.20;99.90;;;;;;5015567;28;20044;-82
2021/11/04 03:12:42;;;;;;;10.57;3.25;;;6.90;99.90;;;;;;5011023;28;20038;-84
2021/11/04 03:15:15;;;;;;;9.10;3.38;;;7.40;99.90;;;;;;5011335;28;20052;-84
2021/11/04 03:18:14;;;;;;;10.02;4.72;;;7.30;99.90;;;;;;4995837;28;20080;-85
2021/11/04 03:20:53;;;;;;;4.93;2.33;;;7.30;99.90;;;;;;4994770;28;20050;-84
2021/11/04 03:23:48;;;;;;;5.10;2.28;;;7.30;99.90;;;;;;5010162;28;20037;-84
2021/11/04 03:26:31;;;;;;;;;;;;;;;;;;;;;
2021/11/04 03:29:04;;;;;;;10.38;2.80;;;7.40;99.90;;;;;;5025630;28;20045;-83
2021/11/04 03:31:36;;;;;;;3.95;2.40;;;7.30;99.90;;;;;;5006888;28;20042;-84
2021/11/04 03:34:06;;;;;;;8.48;2.38;;;7.50;99.90;;;;;;5004221;28;20053;-84
2021/11/04 03:36:41;;;;;;;4.45;1.80;;;7.40;99.90;;;;;;5004618;28;20050;-84
2021/11/04 03:39:42;;;;;;;15.57;3.08;;;7.50;99.90;;;;;;5024433;28;20049;-84
2021/11/04 03:42:38;;;;;;;5.35;2.97;;;7.50;99.90;;;;;;4999177;28;20052;-84
2021/11/04 03:45:31;;;;;;;6.15;2.65;;;7.40;99.90;;;;;;4994879;28;20048;-84
2021/11/04 03:48:04;;;;;;;4.85;2.05;;;7.50;99.90;;;;;;5004401;28;20080;-83
2021/11/04 03:50:36;;;;;;;4.10;2.13;;;7.40;99.90;;;;;;5005761;28;20038;-84
2021/11/04 03:53:05;;;;;;;7.90;1.80;;;7.80;99.90;;;;;;5009981;28;20072;-85
2021/11/04 03:55:45;;;;;;;5.80;2.33;;;7.60;99.90;;;;;;4987670;28;20065;-82
2021/11/04 03:58:36;;;;;;;5.00;1.80;;;7.50;99.90;;;;;;5003975;28;20057;-86
2021/11/04 04:01:06;;;;;;;5.50;2.67;;;7.50;99.90;;;;;;5011995;28;20034;-86
2021/11/04 04:03:47;;;;;;;;;;;;;;;;;;;;;
2021/11/04 04:06:22;;;;;;;7.18;3.15;;;7.50;99.90;;;;;;5012017;28;20056;-87
2021/11/04 04:08:55;;;;;;;3.78;1.90;;;7.60;99.90;;;;;;4997831;28;20057;-86
2021/11/04 04:11:34;;;;;;;8.93;2.33;;;6.40;99.90;;;;;;4982239;28;20041;-85
2021/11/04 04:14:32;;;;;;;2.88;1.60;;;7.20;99.90;;;;;;5000611;28;20057;-86
2021/11/04 04:17:16;;;;;;;4.18;2.15;;;7.50;99.90;;;;;;4995401;28;20045;-87
2021/11/04 04:19:52;;;;;;;5.32;2.20;;;7.50;99.90;;;;;;5009598;28;20057;-85
2021/11/04 04:22:26;;;;;;;3.55;1.70;;;7.50;99.90;;;;;;5009042;28;20038;-86
2021/11/04 04:24:55;;;;;;;2.75;2.55;;;7.60;99.90;;;;;;5012666;28;20068;-83
2021/11/04 04:27:25;;;;;;;8.95;1.65;;;7.50;99.90;;;;;;5008277;28;20048;-87
2021/11/04 04:30:03;;;;;;;4.47;2.00;;;7.60;99.90;;;;;;4996858;28;20025;-85
2021/11/04 04:32:31;;;;;;;3.35;1.85;;;7.50;99.90;;;;;;4991541;28;20050;-83
2021/11/04 04:35:00;;;;;;;4.25;2.17;;;7.60;99.90;;;;;;5011300;28;20052;-83
2021/11/04 04:37:38;;;;;;;;;;;;;;;;;;;;;
2021/11/04 04:40:08;;;;;;;5.70;1.88;;;8.00;99.90;;;;;;4984974;28;20050;-85
2021/11/04 04:43:07;;;;;;;3.17;1.70;;;7.60;99.90;;;;;;5007521;28;20054;-86
2021/11/04 04:45:54;;;;;;;2.10;1.65;;;7.60;99.90;;;;;;5016708;28;20056;-85
2021/11/04 04:48:38;;;;;;;3.40;2.33;;;7.60;99.90;;;;;;5010837;28;20057;-85
2021/11/04 04:51:08;;;;;;;7.22;1.77;;;7.60;99.90;;;;;;4990466;28;20043;-84
2021/11/04 04:54:02;;;;;;;4.53;1.67;;;7.60;99.90;;;;;;5007504;28;20066;-85
2021/11/04 04:56:33;;;;;;;4.82;1.83;;;7.60;99.90;;;;;;4993495;28;20054;-82
2021/11/04 04:59:29;;;;;;;2.03;1.58;;;7.70;99.90;;;;;;4991668;28;20053;-88
2021/11/04 05:02:14;;;;;;;3.47;1.77;;;8.00;99.90;;;;;;4651687;28;10000572;-86
2021/11/04 05:05:17;;;;;;;1.30;1.23;;;7.70;99.90;;;;;;4983614;28;20057;-85
2021/11/04 05:07:46;;;;;;;;;;;7.60;99.90;;;;;;4995229;28;20054;-85
2021/11/04 05:10:14;;;;;;;1.95;1.50;;;7.70;99.90;;;;;;5029052;28;19917;-85
2021/11/04 05:12:44;;;;;;;4.60;2.03;;;7.60;99.90;;;;;;4996779;28;20056;-85
2021/11/04 05:15:13;;;;;;;5.93;1.42;;;7.70;99.90;;;;;;4990924;28;20058;-86
2021/11/04 05:17:44;;;;;;;15.23;4.15;;;7.60;99.90;;;;;;5019556;28;20053;-90
2021/11/04 05:20:15;;;;;;;2.03;1.23;;;7.60;99.90;;;;;;4993961;28;20435;-86
2021/11/04 05:22:44;;;;;;;5.80;2.05;;;7.60;99.90;;;;;;4992854;28;20050;-86
2021/11/04 05:25:14;;;;;;;3.83;1.50;;;7.60;99.90;;;;;;5030938;28;20052;-85
2021/11/04 05:28:33;;;;;;;;;;;;;;;;;;;;;
2021/11/04 05:32:01;;;;;;;7.38;1.52;;;7.70;99.90;;;;;;4982214;28;20050;-83
2021/11/04 05:34:44;;;;;;;4.40;2.65;;;7.60;99.90;;;;;;4978632;28;20046;-87
2021/11/04 05:37:22;;;;;;;;;;;;;;;;;;;;;
2021/11/04 05:41:07;;;;;;;;;;;;;;;;;;;;;
2021/11/04 05:44:26;;;;;;;4.78;1.90;;;7.60;99.90;;;;;;4928395;29;20051;-85
2021/11/04 05:47:30;;;;;;;;;;;;;;;;;;;;;
2021/11/04 05:51:08;;;;;;;3.88;1.50;;;8.40;99.90;;;;;;4960738;28;20059;-88
2021/11/04 05:57:44;;;;;;;5.75;2.10;;;7.70;99.90;;;;;;4907214;29;20064;-85
2021/11/04 06:00:53;;;;;;;3.85;2.08;;;7.60;99.90;;;;;;4942241;29;20056;-86
2021/11/04 06:04:34;;;;;;;;;;;;;;;;;;;;;
2021/11/04 06:07:32;;;;;;;5.88;2.63;;;7.60;99.90;;;;;;4920654;29;20051;-85
2021/11/04 06:10:26;;;;;;;3.25;1.73;;;7.60;99.90;;;;;;4931341;28;20065;-85
2021/11/04 06:13:47;;;;;;;;;;;;;;;;;;;;;
2021/11/04 06:16:43;;;;;;;5.05;2.10;;;7.60;99.90;;;;;;4975705;28;20069;-87
2021/11/04 06:19:46;;;;;;;;;;;7.60;99.90;;;;;;4994696;28;20058;-83
2021/11/04 06:22:43;;;;;;;3.05;2.10;;;7.00;99.90;;;;;;4975235;28;19926;-88
2021/11/04 06:25:14;;;;;;;5.68;2.20;;;7.50;99.90;;;;;;4990247;28;20707;-86
2021/11/04 06:27:57;;;;;;;;;;;7.50;99.90;;;;;;4955731;28;20050;-85
2021/11/04 06:35:16;;;;;;;5.38;2.28;;;7.00;99.90;;;;;;4961975;28;20043;-86
2021/11/04 06:38:34;;;;;;;;;;;;;;;;;;;;;
2021/11/04 06:41:38;;;;;;;5.13;1.95;;;7.50;99.90;;;;;;4973790;28;20042;-85
2021/11/04 06:44:46;;;;;;;2.67;1.70;;;7.50;99.90;;;;;;4980289;28;20057;-84
2021/11/04 06:47:36;;;;;;;5.65;2.50;;;7.50;99.90;;;;;;4960995;28;20046;-86
2021/11/04 06:50:37;;;;;;;8.48;2.80;;;7.60;99.90;;;;;;4981840;28;20058;-86
2021/11/04 06:54:33;;;;;;;;;;;;;;;;;;;;;
2021/11/04 06:58:40;;;;;;;;;;;;;;;;;;;;;
2021/11/04 07:02:02;;;;;;;;;;;;;;;;;;;;;
2021/11/04 07:05:02;;;;;;;5.80;3.08;;;7.60;99.90;;;;;;5009669;28;20064;-87
2021/11/04 07:07:50;;;;;;;4.05;2.05;;;7.40;99.90;;;;;;4992585;28;20083;-82
2021/11/04 07:10:31;;;;;;;4.82;2.28;;;7.40;99.90;;;;;;5003824;28;20065;-83
2021/11/04 07:13:23;;;;;;;;;;;;;;;;;;;;;
2021/11/04 07:16:11;;;;;;;3.08;2.42;;;7.80;99.90;;;;;;4991848;28;20050;-81
2021/11/04 07:18:42;;;;;;;5.82;2.15;;;7.40;99.90;;;;;;5006337;28;20046;-85
2021/11/04 07:25:12;;;;;;;4.75;2.25;;;7.40;99.90;;;;;;4903275;29;19934;-85
2021/11/04 07:28:04;;;;;;;7.57;2.38;;;7.40;99.90;;;;;;4893952;29;20052;-82
2021/11/04 07:30:33;;;;;;;8.55;2.33;;;7.40;99.90;;;;;;4929131;29;20055;-86
2021/11/04 07:33:15;;;;;;;8.00;3.17;;;7.30;99.90;;;;;;4941029;29;20610;-88
2021/11/04 07:35:48;;;;;;;7.20;2.80;;;7.40;99.90;;;;;;4912130;29;20056;-89
2021/11/04 07:38:25;;;;;;;3.50;2.22;;;7.40;99.90;;;;;;4926893;29;20044;-88
2021/11/04 07:40:58;;;;;;;7.60;2.65;;;7.50;99.90;;;;;;4913249;28;20058;-85
2021/11/04 07:43:36;;;;;;;15.02;3.15;;;7.50;99.90;;;;;;4964638;28;20051;-84
2021/11/04 07:46:35;;;;;;;9.25;4.40;;;7.50;99.90;;;;;;4988429;28;20051;-84
2021/11/04 07:49:09;;;;;;;11.68;4.68;;;7.50;99.90;;;;;;4998373;28;20053;-85
2021/11/04 07:51:41;;;;;;;9.38;3.38;;;7.50;99.90;;;;;;4979443;28;20058;-81
2021/11/04 07:54:11;;;;;;;9.20;4.78;;;7.50;99.90;;;;;;4984873;28;20043;-84
2021/11/04 07:57:20;;;;;;;3.65;2.38;;;7.60;99.90;;;;;;4967473;28;20077;-81
2021/11/04 07:59:48;;;;;;;7.72;3.20;;;7.60;99.90;;;;;;4939875;28;20050;-82
2021/11/04 08:02:41;;;;;;;;;;;;;;;;;;;;;
2021/11/04 08:05:37;;;;;;;2.58;2.38;;;6.60;99.90;;;;;;4966624;28;20451;-88
2021/11/04 08:08:48;;;;;;;6.70;3.28;;;7.80;99.90;;;;;;4976917;28;20066;-83
2021/11/04 08:11:52;;;;;;;;;;;;;;;;;;;;;
2021/11/04 08:14:54;;;;;;;5.72;2.53;;;8.70;99.90;;;;;;4981823;28;20045;-86
2021/11/04 08:17:40;;;;;;;8.02;3.08;;;7.80;99.90;;;;;;4967009;28;20046;-86
2021/11/04 08:21:04;;;;;;;5.50;2.72;;;7.90;99.90;;;;;;4965377;28;20055;-87
2021/11/04 08:24:43;;;;;;;4.07;2.55;;;8.10;99.90;;;;;;4891434;29;20063;-87
2021/11/04 08:52:23;;;;;;;;;;;;;;;;;;;;;
2021/11/04 08:55:05;;;;;;;11.20;3.13;;;7.90;99.90;;;;;;5124794;27;20402;-88
2021/11/04 08:57:34;;;;;;;7.50;3.17;;;8.10;99.90;;;;;;5098722;28;20583;-85
2021/11/04 09:00:06;;;;;;;9.40;2.60;;;8.10;99.90;;;;;;5093716;28;20040;-86
2021/11/04 09:02:35;;;;;;;6.45;3.55;;;8.20;99.90;;;;;;5078501;28;20048;-87
2021/11/04 09:05:09;;;;;;;7.88;2.40;;;8.20;99.90;;;;;;5081143;28;20048;-88
2021/11/04 09:07:39;;;;;;;5.82;3.08;;;8.20;99.90;;;;;;5106799;28;20048;-87
2021/11/04 09:10:08;;;;;;;4.75;2.92;;;8.20;99.90;;;;;;5075522;28;20061;-87
2021/11/04 09:12:41;;;;;;;5.32;3.35;;;8.30;99.90;;;;;;5098398;28;20056;-90
2021/11/04 09:15:11;;;;;;;5.57;2.85;;;8.30;99.90;;;;;;5096021;28;20044;-87
2021/11/04 09:17:42;;;;;;;8.07;2.88;;;8.30;99.90;;;;;;5092488;28;20052;-87
2021/11/04 09:20:13;;;;;;;;;;;8.30;99.90;;;;;;5075564;28;20044;-89
2021/11/04 09:22:46;;;;;;;6.53;3.83;;;8.40;99.90;;;;;;5097442;28;19983;-85
2021/11/04 09:25:17;;;;;;;8.68;3.20;;;8.40;99.90;;;;;;5072754;28;20059;-86
2021/11/04 09:27:46;;;;;;;8.98;3.38;;;8.40;99.90;;;;;;5088448;28;20260;-86
2021/11/04 09:30:17;;;;;;;11.30;3.47;;;8.50;99.90;;;;;;5072872;28;20063;-86
2021/11/04 09:32:49;;;;;;;7.07;3.13;;;8.50;99.90;;;;;;5074145;28;20055;-86
2021/11/04 09:35:19;;;;;;;8.43;3.60;;;8.50;99.90;;;;;;5081309;28;20078;-86
2021/11/04 09:37:48;;;;;;;5.63;3.97;;;8.60;99.90;;;;;;5092094;28;20057;-87
2021/11/04 09:40:18;;;;;;;11.75;5.28;;;8.60;99.90;;;;;;5091759;28;20522;-86
2021/11/04 09:42:47;;;;;;;10.45;3.20;;;8.70;99.90;;;;;;5090094;28;20052;-85
2021/11/04 09:45:16;;;;;;;6.60;2.78;;;8.80;99.90;;;;;;5089166;28;20499;-86
2021/11/04 09:47:44;;;;;;;14.93;2.75;;;8.80;99.90;;;;;;5090238;28;20045;-86
2021/11/04 09:50:16;;;;;;;7.05;3.30;;;8.90;99.90;;;;;;5086745;28;20055;-87
2021/11/04 09:52:46;;;;;;;6.28;2.80;;;8.90;99.90;;;;;;5061882;28;20048;-85
2021/11/04 09:55:18;;;;;;;8.05;3.15;;;8.90;99.90;;;;;;5083030;28;20052;-85
2021/11/04 09:57:51;;;;;;;4.50;2.38;;;9.00;99.90;;;;;;5090352;28;20399;-85
2021/11/04 10:00:21;;;;;;;3.45;1.90;;;9.00;99.90;;;;;;5069127;28;20059;-85
2021/11/04 10:03:08;;;;;;;4.32;1.88;;;9.00;99.90;;;;;;5089328;28;20423;-86
2021/11/04 10:05:43;;;;;;;5.07;3.17;;;9.00;99.90;;;;;;4727119;28;10000450;-87
2021/11/04 10:08:15;;;;;;;9.02;2.60;;;9.10;99.90;;;;;;5071987;28;20059;-87
2021/11/04 10:10:44;;;;;;;5.63;2.47;;;9.00;99.90;;;;;;5073608;28;20045;-87
2021/11/04 10:13:14;;;;;;;7.03;4.32;;;9.10;99.90;;;;;;5045408;28;20049;-86
2021/11/04 10:15:42;;;;;;;6.10;2.70;;;9.10;99.90;;;;;;5062778;28;20049;-87
2021/11/04 10:18:18;;;;;;;9.88;3.03;;;9.10;99.90;;;;;;5072577;28;20048;-88
2021/11/04 10:21:03;;;;;;;2.67;2.00;;;9.20;99.90;;;;;;5075540;28;20067;-87
2021/11/04 10:23:43;;;;;;;16.05;4.78;;;9.20;99.90;;;;;;5082444;28;20052;-86
2021/11/04 10:26:26;;;;;;;5.10;2.47;;;9.30;99.90;;;;;;5066069;28;20116;-85
2021/11/04 10:29:04;;;;;;;4.47;2.13;;;9.50;99.90;;;;;;5084733;28;20052;-87
2021/11/04 10:31:46;;;;;;;5.32;2.90;;;9.30;99.90;;;;;;5080500;28;20044;-86
2021/11/04 10:34:26;;;;;;;5.68;2.78;;;9.30;99.90;;;;;;5060722;28;20276;-87
2021/11/04 10:37:20;;;;;;;16.23;3.83;;;9.30;99.90;;;;;;5087855;28;20051;-87
2021/11/04 10:39:49;;;;;;;5.05;3.05;;;9.30;99.90;;;;;;5082080;28;20049;-88
2021/11/04 10:42:17;;;;;;;4.10;2.60;;;9.30;99.90;;;;;;5083853;28;20060;-87
2021/11/04 10:44:45;;;;;;;6.55;4.50;;;9.20;99.90;;;;;;5074069;28;20057;-85
2021/11/04 10:47:21;;;;;;;6.45;2.53;;;9.40;99.90;;;;;;5081597;28;20051;-86
2021/11/04 10:49:51;;;;;;;8.80;3.15;;;10.00;99.90;;;;;;5075426;28;20060;-85
2021/11/04 10:52:39;;;;;;;5.88;2.92;;;9.40;99.90;;;;;;5081628;28;20047;-85
2021/11/04 10:55:09;;;;;;;8.75;3.72;;;9.40;99.90;;;;;;5082153;28;20066;-87
2021/11/04 10:57:39;;;;;;;7.63;3.33;;;9.50;99.90;;;;;;5085826;28;20055;-85
2021/11/04 11:00:22;;;;;;;12.52;3.30;;;9.60;99.90;;;;;;5085414;28;20520;-85
2021/11/04 11:03:10;;;;;;;4.63;2.38;;;9.60;99.90;;;;;;5068152;28;20530;-84
2021/11/04 11:06:08;;;;;;;9.07;2.60;;;9.70;99.90;;;;;;5079666;28;20052;-87
2021/11/04 11:08:37;;;;;;;12.30;3.03;;;9.70;99.90;;;;;;5064404;28;20052;-86
2021/11/04 11:11:19;;;;;;;6.13;2.92;;;9.70;99.90;;;;;;5075876;28;20052;-85
2021/11/04 11:13:48;;;;;;;6.90;2.78;;;9.70;99.90;;;;;;5071803;28;20059;-86
2021/11/04 11:16:18;;;;;;;9.70;2.13;;;9.70;99.90;;;;;;5069735;28;20052;-87
2021/11/04 11:18:46;;;;;;;6.70;2.97;;;9.70;99.90;;;;;;5076504;28;20213;-87
2021/11/04 11:21:15;;;;;;;7.28;2.85;;;9.70;99.90;;;;;;5075898;28;20049;-87
2021/11/04 11:23:43;;;;;;;4.22;2.05;;;9.70;99.90;;;;;;5075103;28;20041;-85
2021/11/04 11:26:14;;;;;;;3.90;2.17;;;9.70;99.90;;;;;;5074694;28;20040;-85
2021/11/04 11:28:44;;;;;;;17.13;2.53;;;9.60;99.90;;;;;;5072932;28;20041;-84
2021/11/04 11:31:16;;;;;;;4.03;2.45;;;9.60;99.90;;;;;;5071127;28;20045;-84
2021/11/04 11:33:48;;;;;;;6.65;2.30;;;9.60;99.90;;;;;;5071368;28;20047;-86
2021/11/04 11:36:18;;;;;;;6.10;2.40;;;9.60;99.90;;;;;;5075929;28;20045;-86
2021/11/04 11:38:55;;;;;;;5.60;2.53;;;9.60;99.90;;;;;;5075354;28;20045;-85
2021/11/04 11:41:28;;;;;;;11.82;2.88;;;9.60;99.90;;;;;;5072868;28;20049;-85
2021/11/04 11:43:57;;;;;;;8.27;3.10;;;9.70;99.90;;;;;;5060334;28;20053;-85
2021/11/04 11:46:26;;;;;;;7.38;3.05;;;9.70;99.90;;;;;;5070273;28;20052;-86
2021/11/04 11:49:12;;;;;;;12.25;3.15;;;9.70;99.90;;;;;;5037427;28;20519;-83
2021/11/04 11:51:47;;;;;;;5.85;3.22;;;9.70;99.90;;;;;;5074002;28;20044;-85
2021/11/04 11:54:15;;;;;;;8.05;3.53;;;9.70;99.90;;;;;;5056469;28;20052;-85
2021/11/04 11:57:09;;;;;;;12.23;2.92;;;9.80;99.90;;;;;;5050058;28;20044;-85
2021/11/04 12:00:04;;;;;;;6.55;3.38;;;9.80;99.90;;;;;;5071048;28;20388;-86
2021/11/04 12:02:53;;;;;;;15.20;4.22;;;9.80;99.90;;;;;;5058658;28;20048;-86
2021/11/04 12:05:34;;;;;;;7.50;3.03;;;9.80;99.90;;;;;;5065989;28;20051;-85
2021/11/04 12:08:08;;;;;;;6.00;2.22;;;9.90;99.90;;;;;;5054741;28;20049;-84
2021/11/04 12:10:37;;;;;;;5.80;2.83;;;9.90;99.90;;;;;;5049183;28;20048;-85
2021/11/04 12:13:05;;;;;;;9.45;2.53;;;9.90;99.90;;;;;;5057279;28;20053;-84
2021/11/04 12:16:12;;;;;;;7.07;2.90;;;9.90;99.90;;;;;;5051339;28;20095;-85
2021/11/04 12:18:52;;;;;;;6.97;2.58;;;9.90;99.90;;;;;;5068129;28;20043;-84
2021/11/04 12:21:34;;;;;;;6.68;2.60;;;9.90;99.90;;;;;;5050681;28;20048;-84
2021/11/04 12:24:11;;;;;;;6.72;3.58;;;10.00;99.90;;;;;;5071960;28;20490;-86
2021/11/04 12:26:43;;;;;;;7.63;3.15;;;9.90;99.90;;;;;;5041688;28;20056;-88
2021/11/04 12:29:14;;;;;;;10.50;2.35;;;9.90;99.90;;;;;;5071734;28;20055;-87
2021/11/04 12:31:45;;;;;;;6.38;2.47;;;10.00;99.90;;;;;;5074107;28;20052;-87
2021/11/04 12:34:21;;;;;;;;;;;10.20;99.90;;;;;;5058766;28;20048;-89
2021/11/04 12:36:50;;;;;;;8.68;2.63;;;9.90;99.90;;;;;;5068372;28;19924;-88
2021/11/04 12:39:29;;;;;;;6.95;2.33;;;9.90;99.90;;;;;;5069971;28;20056;-87
2021/11/04 12:42:05;;;;;;;11.52;2.55;;;10.20;99.90;;;;;;5067890;28;20052;-90
2021/11/04 12:44:35;;;;;;;8.80;2.70;;;10.00;99.90;;;;;;5038229;28;20056;-89
2021/11/04 12:47:06;;;;;;;9.95;3.17;;;10.00;99.90;;;;;;5055943;28;20052;-89
2021/11/04 12:49:39;;;;;;;8.55;2.65;;;10.00;99.90;;;;;;5073177;28;20067;-86
2021/11/04 12:52:09;;;;;;;8.57;2.65;;;10.00;99.90;;;;;;5059424;28;20048;-86
2021/11/04 12:54:38;;;;;;;7.80;3.28;;;10.00;99.90;;;;;;5083575;28;20048;-88
2021/11/04 12:57:17;;;;;;;9.77;2.83;;;9.90;99.90;;;;;;5082867;28;20048;-88
2021/11/04 12:59:56;;;;;;;7.25;3.83;;;10.00;99.90;;;;;;5051043;28;20048;-88
2021/11/04 13:02:31;;;;;;;8.88;2.60;;;9.90;99.90;;;;;;5056876;28;20523;-88
2021/11/04 13:05:20;;;;;;;9.43;2.45;;;9.90;99.90;;;;;;5075596;28;20048;-90
2021/11/04 13:07:59;;;;;;;8.88;3.15;;;9.90;99.90;;;;;;5039655;28;20067;-88
2021/11/04 13:10:31;;;;;;;8.63;2.58;;;9.90;99.90;;;;;;5053020;28;20041;-89
2021/11/04 13:13:03;;;;;;;12.13;3.50;;;9.90;99.90;;;;;;5073386;28;20067;-85
2021/11/04 13:15:42;;;;;;;5.90;2.28;;;9.90;99.90;;;;;;5032097;28;20049;-87
2021/11/04 13:18:12;;;;;;;4.10;2.20;;;9.90;99.90;;;;;;5071569;28;20056;-88
2021/11/04 13:20:48;;;;;;;14.45;2.47;;;9.90;99.90;;;;;;5053996;28;20056;-88
2021/11/04 13:23:25;;;;;;;6.40;2.03;;;9.90;99.90;;;;;;5056186;28;20063;-87
2021/11/04 13:25:59;;;;;;;5.32;3.00;;;10.00;99.90;;;;;;5072316;28;20048;-86
2021/11/04 13:28:36;;;;;;;3.55;2.22;;;10.00;99.90;;;;;;5038957;28;20052;-87
2021/11/04 13:31:14;;;;;;;8.73;2.42;;;9.90;99.90;;;;;;5052574;28;20519;-88
2021/11/04 13:34:07;;;;;;;5.55;2.10;;;10.00;99.90;;;;;;5039159;28;20041;-87
2021/11/04 13:36:36;;;;;;;7.30;2.20;;;9.70;99.90;;;;;;5055712;28;20048;-86
2021/11/04 13:39:10;;;;;;;9.25;2.00;;;10.00;99.90;;;;;;5073665;28;20412;-85
2021/11/04 13:41:44;;;;;;;5.32;2.13;;;10.00;99.90;;;;;;5073801;28;20052;-86
2021/11/04 13:44:17;;;;;;;5.82;2.42;;;10.00;99.90;;;;;;5076603;28;20051;-84
2021/11/04 13:46:47;;;;;;;12.30;2.58;;;10.00;99.90;;;;;;5057890;28;20052;-85
2021/11/04 13:49:17;;;;;;;8.05;2.13;;;10.00;99.90;;;;;;5071789;28;20049;-86
2021/11/04 13:51:56;;;;;;;5.88;1.77;;;10.00;99.90;;;;;;5047355;28;20060;-86
2021/11/04 13:54:27;;;;;;;8.00;2.42;;;10.20;99.90;;;;;;5076059;28;20059;-87
2021/11/04 13:57:09;;;;;;;7.05;2.20;;;10.00;99.90;;;;;;5075886;28;20061;-86
2021/11/04 13:59:41;;;;;;;9.63;2.75;;;10.10;99.90;;;;;;5061965;28;20435;-88
2021/11/04 14:02:12;;;;;;;3.95;2.05;;;10.10;99.90;;;;;;5056484;28;20132;-88
2021/11/04 14:05:02;;;;;;;12.68;3.13;;;10.10;99.90;;;;;;5057128;28;20495;-87
2021/11/04 14:07:35;;;;;;;7.20;2.50;;;10.10;99.90;;;;;;5054261;28;20068;-87
2021/11/04 14:10:08;;;;;;;8.52;2.50;;;10.10;99.90;;;;;;5077365;28;20056;-87
2021/11/04 14:12:42;;;;;;;15.38;4.38;;;10.10;99.90;;;;;;5075801;28;20073;-86
2021/11/04 14:15:23;;;;;;;11.15;3.75;;;10.00;99.90;;;;;;5057215;28;20055;-86
2021/11/04 14:17:57;;;;;;;10.48;2.65;;;10.30;99.90;;;;;;5056525;28;20118;-86
2021/11/04 14:20:28;;;;;;;9.82;3.38;;;10.00;99.90;;;;;;5075361;28;20044;-85
2021/11/04 14:22:57;;;;;;;8.48;2.85;;;10.00;99.90;;;;;;5044082;28;20060;-85
2021/11/04 14:25:28;;;;;;;6.82;2.50;;;9.90;99.90;;;;;;5065574;28;20052;-88
2021/11/04 14:28:04;;;;;;;8.82;3.72;;;10.00;99.90;;;;;;5068058;28;20491;-87
2021/11/04 14:30:39;;;;;;;14.82;3.30;;;10.00;99.90;;;;;;5075288;28;20051;-89
2021/11/04 14:33:08;;;;;;;9.07;2.13;;;10.00;99.90;;;;;;5054802;28;20327;-86
2021/11/04 14:35:36;;;;;;;11.75;3.97;;;10.00;99.90;;;;;;5074282;28;20496;-86
2021/11/04 14:38:06;;;;;;;8.80;3.35;;;10.00;99.90;;;;;;5073692;28;20025;-84
2021/11/04 14:40:35;;;;;;;6.85;4.28;;;10.00;99.90;;;;;;5074969;28;20052;-86
2021/11/04 14:43:03;;;;;;;8.85;2.53;;;10.00;99.90;;;;;;5056432;28;20044;-86
2021/11/04 14:45:35;;;;;;;11.80;3.72;;;10.00;99.90;;;;;;5062178;28;20067;-84
2021/11/04 14:48:04;;;;;;;7.80;2.08;;;10.00;99.90;;;;;;5066223;28;20404;-85
2021/11/04 14:50:33;;;;;;;4.90;2.28;;;10.10;99.90;;;;;;5063160;28;20048;-85
2021/11/04 14:53:04;;;;;;;12.02;2.70;;;10.10;99.90;;;;;;5069965;28;20060;-86
2021/11/04 14:55:33;;;;;;;3.13;2.10;;;10.10;99.90;;;;;;5073522;28;20033;-88
2021/11/04 14:58:01;;;;;;;5.60;2.05;;;10.10;99.90;;;;;;5056697;28;20048;-87
2021/11/04 15:00:29;;;;;;;8.77;2.10;;;10.10;99.90;;;;;;5050329;28;20051;-87
2021/11/04 15:02:57;;;;;;;9.30;2.47;;;10.10;99.90;;;;;;5037751;28;20404;-88
2021/11/04 15:05:25;;;;;;;13.45;3.10;;;10.10;99.90;;;;;;5052460;28;20052;-85
2021/11/04 15:07:54;;;;;;;4.22;2.92;;;10.10;99.90;;;;;;5074108;28;20044;-85
2021/11/04 15:10:40;;;;;;;8.30;1.90;;;10.10;99.90;;;;;;5068400;28;20036;-85
2021/11/04 15:13:11;;;;;;;7.32;2.15;;;10.10;99.90;;;;;;5072138;28;20049;-87
2021/11/04 15:15:39;;;;;;;14.45;2.50;;;10.10;99.90;;;;;;5068243;28;20049;-87
2021/11/04 15:18:08;;;;;;;6.50;2.05;;;10.10;99.90;;;;;;5070358;28;20354;-86
2021/11/04 15:20:36;;;;;;;5.40;1.92;;;10.00;99.90;;;;;;5071452;28;20048;-86
2021/11/04 15:23:05;;;;;;;5.78;2.45;;;10.00;99.90;;;;;;5055398;28;20532;-87
2021/11/04 15:25:35;;;;;;;7.68;4.40;;;10.00;99.90;;;;;;5066015;28;20508;-86
2021/11/04 15:28:06;;;;;;;10.20;2.63;;;10.00;99.90;;;;;;5065354;28;20043;-89
2021/11/04 15:30:34;;;;;;;8.83;2.53;;;10.00;99.90;;;;;;5053602;28;20048;-87
2021/11/04 15:33:04;;;;;;;5.68;2.20;;;10.00;99.90;;;;;;5064853;28;20056;-88
2021/11/04 15:35:33;;;;;;;8.80;2.90;;;10.00;99.90;;;;;;5054635;28;20044;-86